Ottoville, Ohio
Current Conditions -  °F | °C
As of 12:53 PM on Friday 19 Dec 2014 (Local Time) from KAOH Reporting Station
Haze Haze  
Wind Chill: 26°   Ceiling: 2000
Heat Index: 31°   Visibility: 5mi
Dew Point: 24°   Wind: 5mph
Humidity: 76%   Direction: 250°WSW
Pressure: 30.24"   Gusts: NA
Location:  40.93°N, 84.34°W
Report Text: KAOH 191753Z AUTO 25004KT 5SM HZ OVC020 M01/M04 A3024 RMK AO2 SLP252 T10061044 11006 21011 58013
Loading
Personal Weather Stations






























Interactive Weather Map New forecast layout! Learn more

10-Day Weather Forecast

Advertisements
Track Severe Weather on mobile